createdAt,value
2022-08-05T00:02:07.682Z,4.13
2022-08-05T00:06:22.190Z,3.80
2022-08-05T00:10:14.599Z,4.45
2022-08-05T00:13:53.300Z,3.83
2022-08-05T00:17:44.652Z,3.97
2022-08-05T00:21:35.932Z,4.20
2022-08-05T00:25:20.642Z,4.30
2022-08-05T00:29:05.613Z,4.47
2022-08-05T00:32:57.613Z,3.83
2022-08-05T00:37:09.085Z,4.18
2022-08-05T00:40:53.342Z,4.90
2022-08-05T00:44:38.652Z,4.60
2022-08-05T00:48:32.604Z,4.07
2022-08-05T00:52:11.970Z,4.28
2022-08-05T00:56:03.640Z,4.18
2022-08-05T00:59:55.609Z,4.20
2022-08-05T01:03:49.985Z,4.27
2022-08-05T01:08:30.361Z,4.03
2022-08-05T01:11:50.657Z,4.22
2022-08-05T01:15:56.625Z,3.67
2022-08-05T01:20:02.829Z,3.90
2022-08-05T01:24:14.188Z,4.50
2022-08-05T01:28:26.631Z,4.72
2022-08-05T01:32:12.744Z,4.97
2022-08-05T01:36:17.618Z,3.88
2022-08-05T01:40:08.695Z,3.90
2022-08-05T01:44:09.909Z,3.50
2022-08-05T01:48:10.320Z,4.10
2022-08-05T01:52:12.428Z,3.95
2022-08-05T01:56:04.681Z,3.78
2022-08-05T02:00:05.645Z,3.23
2022-08-05T02:03:52.767Z,3.97
2022-08-05T02:07:47.350Z,3.90
2022-08-05T02:12:14.623Z,4.03
2022-08-05T02:16:04.977Z,4.03
2022-08-05T02:20:08.718Z,3.93
2022-08-05T02:23:58.664Z,3.60
2022-08-05T02:27:59.080Z,3.70
2022-08-05T02:31:46.633Z,3.90
2022-08-05T02:35:37.698Z,3.70
2022-08-05T02:39:27.749Z,3.70
2022-08-05T02:43:20.679Z,3.83
2022-08-05T02:47:07.879Z,3.67
2022-08-05T02:51:00.672Z,3.85
2022-08-05T02:54:41.402Z,3.92
2022-08-05T02:58:30.266Z,3.57
2022-08-05T03:02:15.706Z,3.73
2022-08-05T03:06:54.728Z,4.07
2022-08-05T03:10:13.677Z,3.60
2022-08-05T03:14:02.732Z,3.55
2022-08-05T03:17:47.752Z,3.57
2022-08-05T03:21:41.397Z,4.50
2022-08-05T03:26:04.818Z,3.90
2022-08-05T03:29:44.562Z,3.45
2022-08-05T03:33:52.796Z,3.78
2022-08-05T03:37:46.325Z,4.13
2022-08-05T03:41:33.288Z,3.80
2022-08-05T03:45:23.852Z,3.90
2022-08-05T03:49:08.699Z,3.58
2022-08-05T03:55:54.776Z,4.65
2022-08-05T03:57:41.897Z,4.03
2022-08-05T04:01:32.192Z,4.40
2022-08-05T04:05:18.722Z,4.07
2022-08-05T04:09:08.878Z,3.58
2022-08-05T04:12:54.712Z,4.05
2022-08-05T04:16:47.750Z,3.90
2022-08-05T04:20:26.029Z,4.27
2022-08-05T04:24:22.735Z,3.53
2022-08-05T04:28:14.961Z,4.05
2022-08-05T04:31:53.794Z,3.97
2022-08-05T04:36:10.808Z,3.67
2022-08-05T04:39:55.635Z,3.87
2022-08-05T04:43:54.735Z,3.67
2022-08-05T04:47:47.204Z,4.03
2022-08-05T04:51:32.741Z,3.67
2022-08-05T04:56:14.466Z,3.53
2022-08-05T04:59:38.546Z,4.03
2022-08-05T05:03:41.676Z,3.50
2022-08-05T05:07:29.233Z,3.58
2022-08-05T05:11:21.750Z,3.85
2022-08-05T05:15:57.059Z,3.93
2022-08-05T05:19:47.472Z,3.77
2022-08-05T05:24:02.945Z,3.35
2022-08-05T05:27:44.614Z,3.70
2022-08-05T05:35:23.797Z,4.13
2022-08-05T05:39:19.181Z,3.70
2022-08-05T05:42:58.848Z,4.53
2022-08-05T05:46:51.183Z,4.18
2022-08-05T05:50:43.820Z,4.13
2022-08-05T05:54:50.090Z,4.17
2022-08-05T05:58:35.847Z,4.70
2022-08-05T06:02:38.754Z,4.88
2022-08-05T06:06:33.005Z,3.58
2022-08-05T06:10:14.818Z,3.50
2022-08-05T06:14:08.775Z,3.80
2022-08-05T06:18:00.756Z,4.00
2022-08-05T06:21:42.902Z,3.88
2022-08-05T06:26:13.927Z,4.60
2022-08-05T06:30:05.958Z,3.30
2022-08-05T06:34:07.297Z,4.60
2022-08-05T06:37:56.407Z,3.93
2022-08-05T06:42:04.801Z,4.47
2022-08-05T06:46:03.762Z,4.35
2022-08-05T06:50:01.813Z,4.03
2022-08-05T06:53:58.819Z,3.97
2022-08-05T06:57:57.652Z,4.40
2022-08-05T07:01:48.830Z,4.55
2022-08-05T07:05:46.337Z,4.15
2022-08-05T07:09:25.297Z,4.68
2022-08-05T07:13:57.147Z,4.13
2022-08-05T07:17:58.538Z,4.05
2022-08-05T07:22:00.082Z,4.18
2022-08-05T07:25:54.990Z,4.03
2022-08-05T07:30:27.578Z,4.30
2022-08-05T07:34:00.862Z,4.28
2022-08-05T07:37:52.862Z,4.20
2022-08-05T07:42:09.396Z,4.40
2022-08-05T07:45:56.700Z,4.60
2022-08-05T07:49:43.592Z,5.00
2022-08-05T07:53:53.879Z,4.45
2022-08-05T07:57:57.395Z,4.93
2022-08-05T08:01:52.016Z,5.03
2022-08-05T08:05:50.044Z,4.50
2022-08-05T08:09:37.528Z,5.03
2022-08-05T08:13:42.821Z,4.68
2022-08-05T08:17:44.014Z,4.25
2022-08-05T08:21:34.828Z,5.13
2022-08-05T08:25:59.269Z,5.03
2022-08-05T08:30:05.838Z,4.97
2022-08-05T08:33:43.921Z,4.75
2022-08-05T08:37:36.704Z,4.88
2022-08-05T08:41:18.907Z,5.47
2022-08-05T08:45:20.486Z,5.28
2022-08-05T08:50:06.010Z,5.05
2022-08-05T08:53:18.857Z,4.63
2022-08-05T08:57:04.907Z,5.27
2022-08-05T09:01:15.618Z,4.40
2022-08-05T09:05:17.245Z,5.65
2022-08-05T09:09:07.884Z,5.17
2022-08-05T09:12:54.869Z,4.47
2022-08-05T09:16:54.917Z,4.78
2022-08-05T09:20:53.886Z,5.15
2022-08-05T09:24:48.879Z,4.67
2022-08-05T09:28:36.881Z,4.20
2022-08-05T09:32:47.879Z,5.47
2022-08-05T09:36:55.043Z,5.00
2022-08-05T09:40:53.990Z,5.03
2022-08-05T09:44:51.315Z,4.70
2022-08-05T09:48:33.043Z,5.15
2022-08-05T09:52:44.965Z,4.60
2022-08-05T09:56:48.353Z,5.13
2022-08-05T10:00:43.968Z,4.95
2022-08-05T10:04:29.911Z,5.25
2022-08-05T10:08:38.936Z,4.83
2022-08-05T10:12:34.174Z,4.27
2022-08-05T10:16:52.161Z,4.60
2022-08-05T10:20:49.917Z,4.35
2022-08-05T10:24:35.068Z,4.57
2022-08-05T10:28:29.581Z,4.00
2022-08-05T10:32:54.724Z,4.63
2022-08-05T10:36:33.990Z,4.75
2022-08-05T10:40:27.959Z,4.30
2022-08-05T10:44:24.975Z,4.97
2022-08-05T10:48:29.766Z,3.80
2022-08-05T10:52:53.934Z,4.33
2022-08-05T10:57:02.948Z,4.20
2022-08-05T11:00:55.294Z,5.00
2022-08-05T11:04:55.004Z,4.93
2022-08-05T11:08:40.947Z,4.40
2022-08-05T11:12:50.346Z,4.40
2022-08-05T11:16:47.638Z,4.72
2022-08-05T11:20:52.980Z,5.65
2022-08-05T11:24:38.793Z,4.83
2022-08-05T11:28:35.858Z,4.70
2022-08-05T11:32:40.983Z,4.53
2022-08-05T11:36:53.239Z,4.40
2022-08-05T11:41:36.879Z,5.13
2022-08-05T11:45:26.776Z,4.80
2022-08-05T11:49:33.986Z,4.05
2022-08-05T11:53:12.345Z,4.87
2022-08-05T11:57:25.815Z,4.03
2022-08-05T12:01:19.017Z,4.65
2022-08-05T12:05:18.041Z,4.50
2022-08-05T12:09:05.987Z,4.77
2022-08-05T12:13:00.307Z,4.05
2022-08-05T12:16:53.965Z,4.50
2022-08-05T12:20:45.001Z,3.90
2022-08-05T12:24:37.013Z,4.05
2022-08-05T12:28:24.006Z,5.55
2022-08-05T12:32:16.467Z,4.55
2022-08-05T12:36:10.051Z,4.90
2022-08-05T12:39:57.033Z,4.45
2022-08-05T12:43:57.088Z,4.30
2022-08-05T12:47:43.423Z,3.77
2022-08-05T12:52:12.016Z,3.80
2022-08-05T12:55:57.328Z,3.85
2022-08-05T13:01:56.850Z,5.93
2022-08-05T13:04:03.632Z,4.00
2022-08-05T13:08:01.299Z,4.03
2022-08-05T13:12:02.617Z,3.80
2022-08-05T13:15:58.116Z,4.67
2022-08-05T13:19:52.745Z,4.57
2022-08-05T13:23:50.862Z,4.00
2022-08-05T13:27:50.527Z,4.60
2022-08-05T13:32:04.451Z,5.13
2022-08-05T13:35:47.679Z,5.32
2022-08-05T13:40:16.595Z,4.40
2022-08-05T13:43:54.599Z,4.23
2022-08-05T13:48:09.162Z,5.38
2022-08-05T13:51:47.136Z,5.03
2022-08-05T13:55:41.605Z,5.93
2022-08-05T13:59:30.831Z,5.00
2022-08-05T14:03:23.169Z,5.65
2022-08-05T14:07:25.153Z,5.32
2022-08-05T14:11:21.047Z,5.43
2022-08-05T14:16:05.260Z,4.82
2022-08-05T14:19:12.075Z,4.00
2022-08-05T14:22:51.410Z,4.03
2022-08-05T14:27:02.044Z,4.28
2022-08-05T14:30:48.067Z,4.85
2022-08-05T14:34:46.106Z,4.47
2022-08-05T14:38:34.075Z,3.73
2022-08-05T14:42:27.083Z,4.07
2022-08-05T14:46:05.469Z,4.18
2022-08-05T14:50:03.158Z,3.83
2022-08-05T14:54:26.637Z,3.37
2022-08-05T14:58:03.089Z,4.03
2022-08-05T15:01:57.119Z,3.17
2022-08-05T15:06:07.685Z,4.60
2022-08-05T15:09:52.821Z,4.40
2022-08-05T15:13:50.182Z,4.43
2022-08-05T15:17:47.025Z,4.07
2022-08-05T15:21:36.214Z,5.25
2022-08-05T15:25:51.263Z,4.73
2022-08-05T15:29:41.846Z,4.47
2022-08-05T15:34:04.787Z,4.28
2022-08-05T15:38:33.129Z,7.57
2022-08-05T15:41:56.247Z,6.10
2022-08-05T15:46:00.592Z,6.85
2022-08-05T15:49:53.528Z,5.60
2022-08-05T15:53:50.254Z,6.80
2022-08-05T15:57:36.121Z,6.43
2022-08-05T16:01:21.281Z,6.50
2022-08-05T16:05:14.191Z,6.50
2022-08-05T16:09:00.144Z,7.05
2022-08-05T16:12:52.139Z,6.85
2022-08-05T16:16:44.128Z,6.80
2022-08-05T16:20:24.249Z,5.43
2022-08-05T16:24:39.800Z,5.43
2022-08-05T16:28:22.169Z,4.93
2022-08-05T16:32:29.244Z,4.00
2022-08-05T16:36:23.873Z,3.77
2022-08-05T16:40:13.703Z,4.20
2022-08-05T16:44:25.208Z,3.70
2022-08-05T16:48:05.216Z,3.25
2022-08-05T16:51:57.178Z,3.05
2022-08-05T16:55:46.927Z,3.40
2022-08-05T16:59:49.847Z,2.93
2022-08-05T17:03:37.238Z,2.65
2022-08-05T17:07:38.998Z,2.67
2022-08-05T17:11:30.750Z,3.65
2022-08-05T17:15:48.676Z,3.43
2022-08-05T17:19:36.541Z,3.30
2022-08-05T17:24:04.916Z,4.03
2022-08-05T17:27:34.298Z,3.65
2022-08-05T17:31:24.752Z,3.42
2022-08-05T17:35:32.649Z,3.40
2022-08-05T17:39:33.378Z,3.50
2022-08-05T17:43:46.900Z,4.13
2022-08-05T17:47:31.187Z,4.38
2022-08-05T17:51:25.331Z,4.00
2022-08-05T17:55:07.845Z,4.20
2022-08-05T17:59:01.304Z,4.53
2022-08-05T18:02:47.263Z,4.00
2022-08-05T18:06:39.184Z,4.13
2022-08-05T18:10:21.204Z,4.00
2022-08-05T18:14:20.280Z,4.20
2022-08-05T18:18:10.852Z,5.17
2022-08-05T18:22:08.523Z,4.82
2022-08-05T18:25:57.819Z,4.25
2022-08-05T18:29:54.552Z,4.57
2022-08-05T18:33:53.226Z,4.77
2022-08-05T18:37:48.276Z,4.10
2022-08-05T18:41:57.176Z,3.55
2022-08-05T18:45:45.228Z,3.67
2022-08-05T18:49:44.355Z,4.10
2022-08-05T18:53:50.335Z,3.97
2022-08-05T18:57:50.062Z,3.30
2022-08-05T19:01:56.777Z,4.07
2022-08-05T19:06:12.843Z,3.75
2022-08-05T19:09:55.353Z,4.60
2022-08-05T19:14:01.111Z,4.13
2022-08-05T19:18:13.430Z,4.43
2022-08-05T19:22:06.280Z,4.03
2022-08-05T19:25:51.280Z,4.00
2022-08-05T19:29:48.246Z,4.38
2022-08-05T19:33:48.367Z,3.93
2022-08-05T19:38:06.852Z,4.07
2022-08-05T19:42:05.784Z,4.40
2022-08-05T19:46:00.224Z,4.28
2022-08-05T19:49:39.603Z,4.63
2022-08-05T19:54:04.075Z,5.87
2022-08-05T19:57:48.930Z,6.00
2022-08-05T20:01:50.254Z,11.43
2022-08-05T20:05:43.370Z,7.10
2022-08-05T20:09:53.929Z,7.22
2022-08-05T20:13:58.318Z,6.93
2022-08-05T20:17:45.296Z,7.30
2022-08-05T20:21:42.318Z,9.82
2022-08-05T20:25:23.266Z,8.00
2022-08-05T20:29:27.632Z,7.45
2022-08-05T20:33:19.282Z,7.67
2022-08-05T20:37:00.353Z,7.77
2022-08-05T20:40:57.365Z,7.32
2022-08-05T20:44:42.291Z,6.82
2022-08-05T20:48:35.325Z,6.55
2022-08-05T20:52:22.345Z,6.37
2022-08-05T20:56:15.312Z,6.90
2022-08-05T21:00:35.004Z,6.53
2022-08-05T21:04:32.276Z,6.90
2022-08-05T21:08:17.875Z,7.13
2022-08-05T21:12:11.749Z,7.47
2022-08-05T21:16:06.339Z,6.70
2022-08-05T21:19:48.078Z,6.35
2022-08-05T21:23:44.164Z,6.63
2022-08-05T21:27:38.982Z,6.97
2022-08-05T21:31:41.176Z,7.23
2022-08-05T21:35:58.356Z,6.63
2022-08-05T21:39:40.672Z,6.70
2022-08-05T21:43:41.746Z,5.55
2022-08-05T21:47:56.924Z,5.32
2022-08-05T21:52:22.768Z,5.57
2022-08-05T21:56:06.069Z,5.13
2022-08-05T22:00:05.274Z,5.70
2022-08-05T22:03:53.678Z,5.22
2022-08-05T22:07:58.785Z,5.00
2022-08-05T22:11:53.372Z,4.47
2022-08-05T22:16:01.991Z,5.07
2022-08-05T22:20:13.876Z,5.28
2022-08-05T22:24:40.145Z,4.70
2022-08-05T22:28:38.563Z,5.30
2022-08-05T22:32:23.397Z,5.07
2022-08-05T22:36:16.354Z,5.20
2022-08-05T22:40:01.505Z,5.03
2022-08-05T22:43:48.611Z,5.70
2022-08-05T22:47:37.498Z,5.32
2022-08-05T22:52:06.101Z,5.73
2022-08-05T22:55:57.286Z,5.67
2022-08-05T22:59:51.852Z,5.63
2022-08-05T23:03:57.727Z,5.22
2022-08-05T23:07:50.636Z,5.20
2022-08-05T23:11:28.908Z,5.60
2022-08-05T23:15:29.043Z,5.43
2022-08-05T23:19:25.869Z,5.68
2022-08-05T23:23:21.978Z,5.43
2022-08-05T23:27:07.349Z,5.65
2022-08-05T23:31:16.942Z,5.20
2022-08-05T23:34:56.544Z,4.20
2022-08-05T23:38:48.385Z,4.47
2022-08-05T23:42:34.905Z,4.68
2022-08-05T23:46:21.251Z,4.30
2022-08-05T23:50:09.588Z,3.77
2022-08-05T23:54:01.515Z,3.30
2022-08-05T23:57:48.950Z,2.90
